sensor_id;sensor_type;location;lat;lon;timestamp;pressure;altitude;pressure_sealevel;temperature;humidity
44351;BME280;62766;62.622;17.912;2023-03-01T00:01:25;102069.16;;;2.99;53.49
44351;BME280;62766;62.622;17.912;2023-03-01T00:03:55;102064.41;;;3.03;53.40
44351;BME280;62766;62.622;17.912;2023-03-01T00:06:25;102058.23;;;3.12;53.26
44351;BME280;62766;62.622;17.912;2023-03-01T00:08:55;102061.48;;;2.92;53.53
44351;BME280;62766;62.622;17.912;2023-03-01T00:11:26;102066.17;;;2.95;53.66
44351;BME280;62766;62.622;17.912;2023-03-01T00:13:58;102066.82;;;2.99;53.56
44351;BME280;62766;62.622;17.912;2023-03-01T00:16:28;102066.66;;;3.15;53.47
44351;BME280;62766;62.622;17.912;2023-03-01T00:18:58;102067.43;;;3.19;53.58
44351;BME280;62766;62.622;17.912;2023-03-01T00:21:27;102063.80;;;3.09;53.63
44351;BME280;62766;62.622;17.912;2023-03-01T00:23:55;102062.53;;;3.04;53.56
44351;BME280;62766;62.622;17.912;2023-03-01T00:26:26;102059.85;;;3.11;53.67
44351;BME280;62766;62.622;17.912;2023-03-01T00:28:54;102052.01;;;3.08;53.74
44351;BME280;62766;62.622;17.912;2023-03-01T00:31:26;102048.75;;;3.03;53.77
44351;BME280;62766;62.622;17.912;2023-03-01T00:33:55;102043.12;;;3.01;53.78
44351;BME280;62766;62.622;17.912;2023-03-01T00:36:25;102044.28;;;3.08;53.84
44351;BME280;62766;62.622;17.912;2023-03-01T00:38:54;102043.04;;;3.13;53.66
44351;BME280;62766;62.622;17.912;2023-03-01T00:41:23;102039.09;;;2.96;53.65
44351;BME280;62766;62.622;17.912;2023-03-01T00:43:51;102040.10;;;3.06;53.86
44351;BME280;62766;62.622;17.912;2023-03-01T00:46:23;102033.13;;;3.04;53.83
44351;BME280;62766;62.622;17.912;2023-03-01T00:48:52;102038.91;;;3.03;54.04
44351;BME280;62766;62.622;17.912;2023-03-01T00:51:24;102037.85;;;3.00;54.30
44351;BME280;62766;62.622;17.912;2023-03-01T00:53:55;102028.75;;;2.78;54.67
44351;BME280;62766;62.622;17.912;2023-03-01T00:56:26;102022.96;;;2.80;54.98
44351;BME280;62766;62.622;17.912;2023-03-01T00:58:55;102030.03;;;2.93;55.12
44351;BME280;62766;62.622;17.912;2023-03-01T01:01:26;102028.38;;;2.89;55.10
44351;BME280;62766;62.622;17.912;2023-03-01T01:03:58;102017.25;;;2.68;55.52
44351;BME280;62766;62.622;17.912;2023-03-01T01:06:28;102016.87;;;2.53;55.79
44351;BME280;62766;62.622;17.912;2023-03-01T01:08:57;102021.22;;;2.74;55.75
44351;BME280;62766;62.622;17.912;2023-03-01T01:11:28;102023.36;;;2.82;55.70
44351;BME280;62766;62.622;17.912;2023-03-01T01:13:57;102025.40;;;2.69;55.75
44351;BME280;62766;62.622;17.912;2023-03-01T01:16:28;102020.02;;;2.75;55.83
44351;BME280;62766;62.622;17.912;2023-03-01T01:18:57;102016.16;;;2.68;55.88
44351;BME280;62766;62.622;17.912;2023-03-01T01:21:25;102020.10;;;2.67;56.05
44351;BME280;62766;62.622;17.912;2023-03-01T01:23:54;102019.75;;;2.69;56.17
44351;BME280;62766;62.622;17.912;2023-03-01T01:26:26;102018.43;;;2.61;56.20
44351;BME280;62766;62.622;17.912;2023-03-01T01:28:54;102017.45;;;2.74;56.19
44351;BME280;62766;62.622;17.912;2023-03-01T01:31:22;102019.90;;;2.79;56.12
44351;BME280;62766;62.622;17.912;2023-03-01T01:33:52;102015.89;;;2.84;56.10
44351;BME280;62766;62.622;17.912;2023-03-01T01:36:21;102009.33;;;2.83;56.07
44351;BME280;62766;62.622;17.912;2023-03-01T01:38:49;102009.21;;;2.78;56.08
44351;BME280;62766;62.622;17.912;2023-03-01T01:41:19;102005.66;;;2.81;56.12
44351;BME280;62766;62.622;17.912;2023-03-01T01:44:08;101999.24;;;2.89;56.11
44351;BME280;62766;62.622;17.912;2023-03-01T01:46:39;101995.33;;;2.97;56.14
44351;BME280;62766;62.622;17.912;2023-03-01T01:49:17;101992.84;;;2.98;56.08
44351;BME280;62766;62.622;17.912;2023-03-01T01:51:48;101984.81;;;2.88;56.11
44351;BME280;62766;62.622;17.912;2023-03-01T01:54:21;101980.38;;;2.89;56.26
44351;BME280;62766;62.622;17.912;2023-03-01T01:56:57;101971.11;;;2.96;56.32
44351;BME280;62766;62.622;17.912;2023-03-01T01:59:28;101971.62;;;2.97;56.47
44351;BME280;62766;62.622;17.912;2023-03-01T02:02:02;101965.20;;;3.05;56.68
44351;BME280;62766;62.622;17.912;2023-03-01T02:04:32;101961.70;;;2.86;56.73
44351;BME280;62766;62.622;17.912;2023-03-01T02:07:05;101963.85;;;2.97;56.65
44351;BME280;62766;62.622;17.912;2023-03-01T02:09:35;101968.70;;;2.90;56.76
44351;BME280;62766;62.622;17.912;2023-03-01T02:12:04;101967.71;;;3.04;56.97
44351;BME280;62766;62.622;17.912;2023-03-01T02:14:33;101968.29;;;2.94;57.27
44351;BME280;62766;62.622;17.912;2023-03-01T02:17:02;101969.44;;;2.90;57.57
44351;BME280;62766;62.622;17.912;2023-03-01T02:19:42;101973.02;;;2.88;57.85
44351;BME280;62766;62.622;17.912;2023-03-01T02:22:20;101970.42;;;2.92;58.03
44351;BME280;62766;62.622;17.912;2023-03-01T02:25:00;101974.69;;;2.95;57.92
44351;BME280;62766;62.622;17.912;2023-03-01T02:27:38;101964.84;;;2.94;57.74
44351;BME280;62766;62.622;17.912;2023-03-01T02:30:09;101966.58;;;2.90;57.76
44351;BME280;62766;62.622;17.912;2023-03-01T02:32:39;101960.44;;;3.00;57.75
44351;BME280;62766;62.622;17.912;2023-03-01T02:35:12;101953.69;;;2.97;57.64
44351;BME280;62766;62.622;17.912;2023-03-01T02:37:42;101953.27;;;3.01;57.50
44351;BME280;62766;62.622;17.912;2023-03-01T02:40:15;101950.54;;;3.07;57.38
44351;BME280;62766;62.622;17.912;2023-03-01T02:42:49;101949.46;;;3.15;57.33
44351;BME280;62766;62.622;17.912;2023-03-01T02:45:20;101945.11;;;3.22;57.22
44351;BME280;62766;62.622;17.912;2023-03-01T02:47:48;101939.84;;;3.20;57.22
44351;BME280;62766;62.622;17.912;2023-03-01T02:50:26;101919.18;;;3.15;57.25
44351;BME280;62766;62.622;17.912;2023-03-01T02:53:09;101924.26;;;3.19;57.49
44351;BME280;62766;62.622;17.912;2023-03-01T02:55:40;101929.32;;;3.19;57.54
44351;BME280;62766;62.622;17.912;2023-03-01T02:58:08;101927.25;;;3.13;57.69
44351;BME280;62766;62.622;17.912;2023-03-01T03:00:38;101915.76;;;3.10;57.69
44351;BME280;62766;62.622;17.912;2023-03-01T03:03:08;101911.69;;;3.13;57.49
44351;BME280;62766;62.622;17.912;2023-03-01T03:05:36;101913.27;;;3.31;57.29
44351;BME280;62766;62.622;17.912;2023-03-01T03:08:05;101915.26;;;3.11;57.28
44351;BME280;62766;62.622;17.912;2023-03-01T03:10:35;101911.75;;;3.15;57.24
44351;BME280;62766;62.622;17.912;2023-03-01T03:13:06;101903.09;;;3.19;57.21
44351;BME280;62766;62.622;17.912;2023-03-01T03:15:36;101899.46;;;3.19;57.12
44351;BME280;62766;62.622;17.912;2023-03-01T03:18:06;101900.23;;;3.21;57.07
44351;BME280;62766;62.622;17.912;2023-03-01T03:20:36;101902.15;;;3.35;56.97
44351;BME280;62766;62.622;17.912;2023-03-01T03:23:05;101896.05;;;3.30;56.87
44351;BME280;62766;62.622;17.912;2023-03-01T03:25:33;101894.12;;;3.45;56.79
44351;BME280;62766;62.622;17.912;2023-03-01T03:28:02;101889.32;;;3.33;56.79
44351;BME280;62766;62.622;17.912;2023-03-01T03:30:31;101885.55;;;3.33;56.83
44351;BME280;62766;62.622;17.912;2023-03-01T03:33:00;101884.06;;;3.31;56.86
44351;BME280;62766;62.622;17.912;2023-03-01T03:35:30;101883.25;;;3.29;56.98
44351;BME280;62766;62.622;17.912;2023-03-01T03:38:00;101885.86;;;3.42;56.99
44351;BME280;62766;62.622;17.912;2023-03-01T03:40:30;101889.04;;;3.35;56.95
44351;BME280;62766;62.622;17.912;2023-03-01T03:42:59;101890.95;;;3.40;56.82
44351;BME280;62766;62.622;17.912;2023-03-01T03:45:27;101896.74;;;3.45;56.77
44351;BME280;62766;62.622;17.912;2023-03-01T03:47:55;101901.10;;;3.42;56.70
44351;BME280;62766;62.622;17.912;2023-03-01T03:50:24;101905.55;;;3.42;56.72
44351;BME280;62766;62.622;17.912;2023-03-01T03:52:53;101902.40;;;3.47;56.64
44351;BME280;62766;62.622;17.912;2023-03-01T03:55:22;101908.53;;;3.53;56.47
44351;BME280;62766;62.622;17.912;2023-03-01T03:57:51;101904.67;;;3.53;56.44
44351;BME280;62766;62.622;17.912;2023-03-01T04:00:21;101910.78;;;3.41;56.48
44351;BME280;62766;62.622;17.912;2023-03-01T04:02:50;101905.11;;;3.59;56.60
44351;BME280;62766;62.622;17.912;2023-03-01T04:05:19;101907.42;;;3.48;56.59
44351;BME280;62766;62.622;17.912;2023-03-01T04:07:48;101904.91;;;3.43;56.57
44351;BME280;62766;62.622;17.912;2023-03-01T04:10:17;101907.42;;;3.36;56.68
44351;BME280;62766;62.622;17.912;2023-03-01T04:12:46;101901.50;;;3.36;56.81
44351;BME280;62766;62.622;17.912;2023-03-01T04:15:15;101900.12;;;3.50;57.02
44351;BME280;62766;62.622;17.912;2023-03-01T04:17:44;101894.29;;;3.40;57.22
44351;BME280;62766;62.622;17.912;2023-03-01T04:20:17;101890.18;;;3.36;57.36
44351;BME280;62766;62.622;17.912;2023-03-01T04:22:47;101884.22;;;3.36;57.39
44351;BME280;62766;62.622;17.912;2023-03-01T04:25:15;101879.00;;;3.22;57.58
44351;BME280;62766;62.622;17.912;2023-03-01T04:27:44;101879.87;;;3.17;57.81
44351;BME280;62766;62.622;17.912;2023-03-01T04:30:12;101877.27;;;3.19;57.90
44351;BME280;62766;62.622;17.912;2023-03-01T04:32:41;101872.50;;;3.30;57.88
44351;BME280;62766;62.622;17.912;2023-03-01T04:35:09;101871.83;;;3.21;58.02
44351;BME280;62766;62.622;17.912;2023-03-01T04:37:37;101864.43;;;3.08;58.19
44351;BME280;62766;62.622;17.912;2023-03-01T04:40:07;101868.26;;;3.32;58.34
44351;BME280;62766;62.622;17.912;2023-03-01T04:42:36;101861.15;;;3.12;58.48
44351;BME280;62766;62.622;17.912;2023-03-01T04:45:05;101855.82;;;3.00;58.77
44351;BME280;62766;62.622;17.912;2023-03-01T04:47:34;101864.62;;;2.96;59.18
44351;BME280;62766;62.622;17.912;2023-03-01T04:50:03;101858.07;;;2.85;59.35
44351;BME280;62766;62.622;17.912;2023-03-01T04:52:31;101859.46;;;3.00;59.31
44351;BME280;62766;62.622;17.912;2023-03-01T04:55:00;101860.63;;;2.79;59.41
44351;BME280;62766;62.622;17.912;2023-03-01T04:57:28;101863.86;;;2.83;59.45
44351;BME280;62766;62.622;17.912;2023-03-01T04:59:56;101863.25;;;2.86;59.56
44351;BME280;62766;62.622;17.912;2023-03-01T05:03:33;101859.22;;;2.60;59.96
44351;BME280;62766;62.622;17.912;2023-03-01T05:06:02;101853.99;;;2.68;59.97
44351;BME280;62766;62.622;17.912;2023-03-01T05:08:30;101858.18;;;2.73;60.18
44351;BME280;62766;62.622;17.912;2023-03-01T05:10:58;101858.24;;;2.67;60.48
44351;BME280;62766;62.622;17.912;2023-03-01T05:13:28;101847.67;;;2.60;60.77
44351;BME280;62766;62.622;17.912;2023-03-01T05:15:59;101843.47;;;2.49;61.16
44351;BME280;62766;62.622;17.912;2023-03-01T05:18:31;101845.68;;;2.43;61.30
44351;BME280;62766;62.622;17.912;2023-03-01T05:21:02;101849.06;;;2.54;61.27
44351;BME280;62766;62.622;17.912;2023-03-01T05:23:31;101848.64;;;2.66;61.21
44351;BME280;62766;62.622;17.912;2023-03-01T05:26:01;101846.09;;;2.83;61.21
44351;BME280;62766;62.622;17.912;2023-03-01T05:28:30;101842.92;;;2.67;61.20
44351;BME280;62766;62.622;17.912;2023-03-01T05:30:59;101843.10;;;2.55;61.20
44351;BME280;62766;62.622;17.912;2023-03-01T05:33:28;101844.20;;;2.72;61.05
44351;BME280;62766;62.622;17.912;2023-03-01T05:35:59;101845.66;;;2.72;60.90
44351;BME280;62766;62.622;17.912;2023-03-01T05:38:28;101843.50;;;2.78;60.82
44351;BME280;62766;62.622;17.912;2023-03-01T05:40:58;101842.80;;;2.81;60.71
44351;BME280;62766;62.622;17.912;2023-03-01T05:43:30;101846.48;;;2.76;60.68
44351;BME280;62766;62.622;17.912;2023-03-01T05:46:00;101841.01;;;2.66;60.71
44351;BME280;62766;62.622;17.912;2023-03-01T05:48:29;101838.33;;;2.77;60.72
44351;BME280;62766;62.622;17.912;2023-03-01T05:50:59;101839.37;;;2.87;60.82
44351;BME280;62766;62.622;17.912;2023-03-01T05:53:29;101849.54;;;2.66;60.87
44351;BME280;62766;62.622;17.912;2023-03-01T05:55:57;101847.91;;;2.76;60.80
44351;BME280;62766;62.622;17.912;2023-03-01T05:58:25;101848.93;;;2.78;60.68
44351;BME280;62766;62.622;17.912;2023-03-01T06:01:04;101848.43;;;2.82;60.68
44351;BME280;62766;62.622;17.912;2023-03-01T06:03:32;101850.33;;;2.98;60.50
44351;BME280;62766;62.622;17.912;2023-03-01T06:06:01;101853.26;;;2.99;60.29
44351;BME280;62766;62.622;17.912;2023-03-01T06:08:29;101851.56;;;2.85;60.41
44351;BME280;62766;62.622;17.912;2023-03-01T06:10:57;101851.93;;;2.79;60.51
44351;BME280;62766;62.622;17.912;2023-03-01T06:13:26;101852.83;;;2.82;60.60
44351;BME280;62766;62.622;17.912;2023-03-01T06:15:54;101855.11;;;3.04;60.51
44351;BME280;62766;62.622;17.912;2023-03-01T06:18:23;101855.58;;;2.97;60.40
44351;BME280;62766;62.622;17.912;2023-03-01T06:20:53;101859.39;;;3.05;60.30
44351;BME280;62766;62.622;17.912;2023-03-01T06:23:21;101859.00;;;3.12;60.01
44351;BME280;62766;62.622;17.912;2023-03-01T06:25:51;101857.57;;;3.13;59.84
44351;BME280;62766;62.622;17.912;2023-03-01T06:28:20;101851.90;;;3.29;59.77
44351;BME280;62766;62.622;17.912;2023-03-01T06:30:49;101852.20;;;3.34;59.72
44351;BME280;62766;62.622;17.912;2023-03-01T06:33:19;101842.86;;;3.23;59.74
44351;BME280;62766;62.622;17.912;2023-03-01T06:35:48;101847.15;;;3.31;59.72
44351;BME280;62766;62.622;17.912;2023-03-01T06:38:17;101847.27;;;3.21;59.77
44351;BME280;62766;62.622;17.912;2023-03-01T06:40:51;101848.25;;;3.32;59.69
44351;BME280;62766;62.622;17.912;2023-03-01T06:43:21;101848.72;;;3.36;59.56
44351;BME280;62766;62.622;17.912;2023-03-01T06:45:49;101852.88;;;3.42;59.47
44351;BME280;62766;62.622;17.912;2023-03-01T06:48:17;101852.48;;;3.55;59.51
44351;BME280;62766;62.622;17.912;2023-03-01T06:50:46;101855.31;;;3.60;59.33
44351;BME280;62766;62.622;17.912;2023-03-01T06:53:14;101854.80;;;3.69;59.11
44351;BME280;62766;62.622;17.912;2023-03-01T06:55:43;101849.57;;;3.69;59.05
44351;BME280;62766;62.622;17.912;2023-03-01T06:58:11;101846.93;;;3.81;58.64
44351;BME280;62766;62.622;17.912;2023-03-01T07:00:39;101848.28;;;4.07;58.36
44351;BME280;62766;62.622;17.912;2023-03-01T07:03:08;101847.06;;;4.17;57.98
44351;BME280;62766;62.622;17.912;2023-03-01T07:05:41;101849.91;;;4.05;57.78
44351;BME280;62766;62.622;17.912;2023-03-01T07:08:10;101848.78;;;4.23;57.43
44351;BME280;62766;62.622;17.912;2023-03-01T07:10:38;101853.17;;;4.37;57.11
44351;BME280;62766;62.622;17.912;2023-03-01T07:13:06;101858.23;;;4.41;56.93
44351;BME280;62766;62.622;17.912;2023-03-01T07:15:35;101857.17;;;4.52;56.33
44351;BME280;62766;62.622;17.912;2023-03-01T07:23:40;101855.89;;;4.64;55.58
44351;BME280;62766;62.622;17.912;2023-03-01T07:26:08;101852.97;;;4.81;55.40
44351;BME280;62766;62.622;17.912;2023-03-01T07:28:37;101851.82;;;4.98;55.22
44351;BME280;62766;62.622;17.912;2023-03-01T07:31:05;101853.56;;;5.07;54.72
44351;BME280;62766;62.622;17.912;2023-03-01T07:33:33;101847.78;;;5.18;54.71
44351;BME280;62766;62.622;17.912;2023-03-01T07:36:04;101841.99;;;5.08;54.67
44351;BME280;62766;62.622;17.912;2023-03-01T07:38:32;101843.01;;;5.18;54.45
44351;BME280;62766;62.622;17.912;2023-03-01T07:41:02;101836.07;;;5.10;54.51
44351;BME280;62766;62.622;17.912;2023-03-01T07:43:30;101837.98;;;5.11;54.48
44351;BME280;62766;62.622;17.912;2023-03-01T07:45:59;101838.26;;;5.16;54.44
44351;BME280;62766;62.622;17.912;2023-03-01T07:48:30;101837.91;;;5.18;54.29
44351;BME280;62766;62.622;17.912;2023-03-01T07:50:59;101836.02;;;5.34;54.17
44351;BME280;62766;62.622;17.912;2023-03-01T07:53:28;101836.84;;;5.41;54.10
44351;BME280;62766;62.622;17.912;2023-03-01T07:56:00;101834.83;;;5.39;54.12
44351;BME280;62766;62.622;17.912;2023-03-01T07:58:30;101836.01;;;5.61;53.56
44351;BME280;62766;62.622;17.912;2023-03-01T08:01:01;101829.89;;;5.52;53.25
44351;BME280;62766;62.622;17.912;2023-03-01T08:03:29;101826.41;;;5.70;53.29
44351;BME280;62766;62.622;17.912;2023-03-01T08:05:59;101822.81;;;5.77;52.99
44351;BME280;62766;62.622;17.912;2023-03-01T08:08:28;101818.72;;;5.88;52.97
44351;BME280;62766;62.622;17.912;2023-03-01T08:10:59;101810.46;;;5.99;52.66
44351;BME280;62766;62.622;17.912;2023-03-01T08:13:29;101809.12;;;5.90;52.46
44351;BME280;62766;62.622;17.912;2023-03-01T08:16:01;101812.97;;;6.06;52.51
44351;BME280;62766;62.622;17.912;2023-03-01T08:18:30;101812.50;;;6.15;52.25
44351;BME280;62766;62.622;17.912;2023-03-01T08:21:02;101809.14;;;6.31;52.04
44351;BME280;62766;62.622;17.912;2023-03-01T08:23:30;101802.24;;;6.41;51.55
44351;BME280;62766;62.622;17.912;2023-03-01T08:26:08;101799.05;;;6.54;51.29
44351;BME280;62766;62.622;17.912;2023-03-01T08:28:37;101789.07;;;6.82;50.81
44351;BME280;62766;62.622;17.912;2023-03-01T08:31:14;101790.15;;;6.86;50.38
44351;BME280;62766;62.622;17.912;2023-03-01T08:33:42;101787.24;;;7.05;49.62
44351;BME280;62766;62.622;17.912;2023-03-01T08:36:10;101789.24;;;7.15;49.29
44351;BME280;62766;62.622;17.912;2023-03-01T08:38:39;101790.08;;;7.21;48.92
44351;BME280;62766;62.622;17.912;2023-03-01T08:41:07;101792.36;;;7.15;48.90
44351;BME280;62766;62.622;17.912;2023-03-01T08:43:35;101788.83;;;7.24;48.47
44351;BME280;62766;62.622;17.912;2023-03-01T08:46:04;101783.91;;;7.26;48.23
44351;BME280;62766;62.622;17.912;2023-03-01T08:48:32;101779.39;;;7.22;48.25
44351;BME280;62766;62.622;17.912;2023-03-01T08:51:07;101778.07;;;7.25;48.01
44351;BME280;62766;62.622;17.912;2023-03-01T08:53:36;101768.90;;;7.16;48.28
44351;BME280;62766;62.622;17.912;2023-03-01T08:56:04;101770.82;;;7.14;48.33
44351;BME280;62766;62.622;17.912;2023-03-01T08:58:32;101776.05;;;7.48;47.61
44351;BME280;62766;62.622;17.912;2023-03-01T09:01:01;101771.41;;;7.64;47.17
44351;BME280;62766;62.622;17.912;2023-03-01T09:03:34;101764.31;;;7.78;46.65
44351;BME280;62766;62.622;17.912;2023-03-01T09:06:04;101761.99;;;7.69;46.67
44351;BME280;62766;62.622;17.912;2023-03-01T09:08:34;101758.79;;;8.02;46.60
44351;BME280;62766;62.622;17.912;2023-03-01T09:11:03;101759.68;;;8.02;46.03
44351;BME280;62766;62.622;17.912;2023-03-01T09:13:33;101764.40;;;8.16;45.96
44351;BME280;62766;62.622;17.912;2023-03-01T09:16:03;101768.56;;;8.18;45.84
44351;BME280;62766;62.622;17.912;2023-03-01T09:18:34;101765.92;;;8.28;45.49
44351;BME280;62766;62.622;17.912;2023-03-01T09:21:04;101769.95;;;8.13;45.36
44351;BME280;62766;62.622;17.912;2023-03-01T09:23:33;101761.89;;;7.99;45.46
44351;BME280;62766;62.622;17.912;2023-03-01T09:26:03;101764.17;;;8.06;45.03
44351;BME280;62766;62.622;17.912;2023-03-01T09:28:31;101763.20;;;7.94;45.38
44351;BME280;62766;62.622;17.912;2023-03-01T09:31:00;101760.28;;;7.79;45.78
44351;BME280;62766;62.622;17.912;2023-03-01T09:33:31;101759.99;;;7.75;45.61
44351;BME280;62766;62.622;17.912;2023-03-01T09:36:00;101755.14;;;7.61;45.91
44351;BME280;62766;62.622;17.912;2023-03-01T09:38:30;101751.51;;;7.66;46.11
44351;BME280;62766;62.622;17.912;2023-03-01T09:40:59;101749.60;;;7.69;45.89
44351;BME280;62766;62.622;17.912;2023-03-01T09:43:34;101748.03;;;7.72;45.45
44351;BME280;62766;62.622;17.912;2023-03-01T09:46:10;101743.57;;;7.82;45.26
44351;BME280;62766;62.622;17.912;2023-03-01T09:48:42;101746.53;;;7.84;45.42
44351;BME280;62766;62.622;17.912;2023-03-01T09:51:15;101743.25;;;7.77;45.29
44351;BME280;62766;62.622;17.912;2023-03-01T09:53:45;101738.15;;;7.55;45.62
44351;BME280;62766;62.622;17.912;2023-03-01T09:56:20;101741.99;;;7.44;45.67
44351;BME280;62766;62.622;17.912;2023-03-01T09:58:53;101735.95;;;7.41;45.87
44351;BME280;62766;62.622;17.912;2023-03-01T10:01:29;101730.81;;;7.47;46.10
44351;BME280;62766;62.622;17.912;2023-03-01T10:04:11;101723.81;;;7.37;45.99
44351;BME280;62766;62.622;17.912;2023-03-01T10:06:45;101715.41;;;7.48;46.06
44351;BME280;62766;62.622;17.912;2023-03-01T10:09:16;101714.90;;;7.70;45.59
44351;BME280;62766;62.622;17.912;2023-03-01T10:11:48;101725.21;;;7.74;45.67
44351;BME280;62766;62.622;17.912;2023-03-01T10:14:29;101714.17;;;7.82;45.33
44351;BME280;62766;62.622;17.912;2023-03-01T10:17:02;101721.94;;;7.79;45.44
44351;BME280;62766;62.622;17.912;2023-03-01T10:19:36;101720.13;;;7.85;45.58
44351;BME280;62766;62.622;17.912;2023-03-01T10:22:13;101718.23;;;7.74;45.84
44351;BME280;62766;62.622;17.912;2023-03-01T10:24:42;101711.33;;;7.69;45.95
44351;BME280;62766;62.622;17.912;2023-03-01T10:27:17;101711.29;;;7.63;46.12
44351;BME280;62766;62.622;17.912;2023-03-01T10:29:50;101716.00;;;7.49;46.36
44351;BME280;62766;62.622;17.912;2023-03-01T10:32:20;101714.04;;;7.41;46.88
44351;BME280;62766;62.622;17.912;2023-03-01T10:34:49;101716.49;;;7.37;47.18
44351;BME280;62766;62.622;17.912;2023-03-01T10:37:20;101721.96;;;7.28;47.50
44351;BME280;62766;62.622;17.912;2023-03-01T10:39:58;101714.98;;;7.33;47.29
44351;BME280;62766;62.622;17.912;2023-03-01T10:42:29;101710.69;;;7.40;47.33
44351;BME280;62766;62.622;17.912;2023-03-01T10:45:02;101711.82;;;7.40;47.31
44351;BME280;62766;62.622;17.912;2023-03-01T10:47:42;101706.23;;;7.40;47.34
44351;BME280;62766;62.622;17.912;2023-03-01T10:50:21;101692.39;;;7.53;47.29
44351;BME280;62766;62.622;17.912;2023-03-01T10:52:59;101691.47;;;7.49;47.10
44351;BME280;62766;62.622;17.912;2023-03-01T10:55:33;101699.61;;;7.55;47.28
44351;BME280;62766;62.622;17.912;2023-03-01T10:58:09;101701.74;;;7.51;47.33
44351;BME280;62766;62.622;17.912;2023-03-01T11:03:26;101700.26;;;7.64;47.32
44351;BME280;62766;62.622;17.912;2023-03-01T11:05:59;101703.38;;;7.77;46.85
44351;BME280;62766;62.622;17.912;2023-03-01T11:08:33;101700.84;;;7.78;46.65
44351;BME280;62766;62.622;17.912;2023-03-01T11:11:12;101711.85;;;8.13;46.46
44351;BME280;62766;62.622;17.912;2023-03-01T11:13:50;101711.52;;;8.18;46.18
44351;BME280;62766;62.622;17.912;2023-03-01T11:16:39;101718.84;;;8.28;45.80
44351;BME280;62766;62.622;17.912;2023-03-01T11:19:19;101706.58;;;8.35;45.71
44351;BME280;62766;62.622;17.912;2023-03-01T11:21:57;101699.74;;;8.38;45.67
44351;BME280;62766;62.622;17.912;2023-03-01T11:24:34;101702.50;;;8.54;45.61
44351;BME280;62766;62.622;17.912;2023-03-01T11:27:16;101701.60;;;8.57;44.97
44351;BME280;62766;62.622;17.912;2023-03-01T11:29:47;101699.51;;;8.71;45.15
44351;BME280;62766;62.622;17.912;2023-03-01T11:32:20;101695.78;;;8.65;44.97
44351;BME280;62766;62.622;17.912;2023-03-01T11:34:56;101698.24;;;8.79;44.97
44351;BME280;62766;62.622;17.912;2023-03-01T11:37:33;101692.33;;;8.91;44.68
44351;BME280;62766;62.622;17.912;2023-03-01T11:40:13;101690.38;;;8.85;44.84
44351;BME280;62766;62.622;17.912;2023-03-01T11:42:51;101686.21;;;8.99;44.42
44351;BME280;62766;62.622;17.912;2023-03-01T11:45:24;101694.15;;;9.02;44.45
44351;BME280;62766;62.622;17.912;2023-03-01T11:48:05;101698.51;;;9.19;44.38
44351;BME280;62766;62.622;17.912;2023-03-01T11:50:40;101698.05;;;9.12;43.92
44351;BME280;62766;62.622;17.912;2023-03-01T11:53:31;101702.24;;;9.18;43.90
44351;BME280;62766;62.622;17.912;2023-03-01T11:56:12;101682.78;;;9.16;43.68
44351;BME280;62766;62.622;17.912;2023-03-01T11:58:55;101680.92;;;8.99;44.09
44351;BME280;62766;62.622;17.912;2023-03-01T12:01:39;101683.09;;;9.14;43.90
44351;BME280;62766;62.622;17.912;2023-03-01T12:05:00;101686.09;;;9.09;43.80
44351;BME280;62766;62.622;17.912;2023-03-01T12:07:36;101682.13;;;8.89;44.03
44351;BME280;62766;62.622;17.912;2023-03-01T12:10:22;101673.14;;;8.79;44.30
44351;BME280;62766;62.622;17.912;2023-03-01T12:13:03;101669.24;;;8.79;44.49
44351;BME280;62766;62.622;17.912;2023-03-01T12:16:04;101673.61;;;8.77;44.73
44351;BME280;62766;62.622;17.912;2023-03-01T12:19:10;101672.49;;;8.67;44.62
44351;BME280;62766;62.622;17.912;2023-03-01T12:21:56;101672.31;;;8.63;44.94
44351;BME280;62766;62.622;17.912;2023-03-01T12:24:41;101667.65;;;8.72;44.76
44351;BME280;62766;62.622;17.912;2023-03-01T12:27:30;101655.64;;;8.77;44.77
44351;BME280;62766;62.622;17.912;2023-03-01T12:30:16;101661.52;;;8.88;44.66
44351;BME280;62766;62.622;17.912;2023-03-01T12:32:59;101671.68;;;8.85;44.31
44351;BME280;62766;62.622;17.912;2023-03-01T12:35:49;101673.26;;;9.07;43.93
44351;BME280;62766;62.622;17.912;2023-03-01T12:38:32;101679.88;;;9.11;43.88
44351;BME280;62766;62.622;17.912;2023-03-01T12:41:13;101667.00;;;9.18;43.67
44351;BME280;62766;62.622;17.912;2023-03-01T12:43:56;101666.60;;;9.27;43.48
44351;BME280;62766;62.622;17.912;2023-03-01T12:46:36;101665.66;;;9.18;43.38
44351;BME280;62766;62.622;17.912;2023-03-01T12:49:13;101668.46;;;9.20;43.21
44351;BME280;62766;62.622;17.912;2023-03-01T12:51:46;101669.83;;;9.13;43.30
44351;BME280;62766;62.622;17.912;2023-03-01T12:54:24;101670.05;;;9.27;43.16
44351;BME280;62766;62.622;17.912;2023-03-01T12:56:55;101669.52;;;9.10;43.23
44351;BME280;62766;62.622;17.912;2023-03-01T12:59:30;101664.17;;;9.14;42.94
44351;BME280;62766;62.622;17.912;2023-03-01T13:02:12;101661.06;;;8.96;43.30
44351;BME280;62766;62.622;17.912;2023-03-01T13:04:56;101670.89;;;8.99;43.27
44351;BME280;62766;62.622;17.912;2023-03-01T13:07:32;101662.29;;;8.92;43.44
44351;BME280;62766;62.622;17.912;2023-03-01T13:10:16;101658.05;;;8.63;43.44
44351;BME280;62766;62.622;17.912;2023-03-01T13:12:52;101657.62;;;8.66;43.61
44351;BME280;62766;62.622;17.912;2023-03-01T13:15:27;101655.88;;;8.63;43.82
44351;BME280;62766;62.622;17.912;2023-03-01T13:17:56;101657.69;;;8.74;43.58
44351;BME280;62766;62.622;17.912;2023-03-01T13:20:29;101645.83;;;8.78;43.68
44351;BME280;62766;62.622;17.912;2023-03-01T13:23:04;101655.26;;;8.71;43.47
44351;BME280;62766;62.622;17.912;2023-03-01T13:25:34;101657.38;;;8.76;43.51